createdAt,value
2023-01-21T00:00:26.410Z,88.5
2023-01-21T00:01:31.695Z,88
2023-01-21T00:02:37.975Z,88
2023-01-21T00:03:44.249Z,88
2023-01-21T00:04:50.502Z,88
2023-01-21T00:05:56.780Z,88
2023-01-21T00:07:03.052Z,88.5
2023-01-21T00:08:09.391Z,88
2023-01-21T00:09:14.621Z,88
2023-01-21T00:10:19.912Z,88
2023-01-21T00:11:25.321Z,88
2023-01-21T00:12:30.540Z,88
2023-01-21T00:13:36.779Z,87.5
2023-01-21T00:14:43.046Z,87.5
2023-01-21T00:15:49.321Z,87.5
2023-01-21T00:16:55.661Z,87.5
2023-01-21T00:18:01.874Z,87.5
2023-01-21T00:19:08.140Z,87.5
2023-01-21T00:20:14.471Z,87.5
2023-01-21T00:21:20.708Z,87.5
2023-01-21T00:22:27.058Z,88
2023-01-21T00:23:33.251Z,88
2023-01-21T00:24:39.532Z,88
2023-01-21T00:25:45.778Z,88
2023-01-21T00:26:51.062Z,88
2023-01-21T00:27:57.345Z,88
2023-01-21T00:29:03.607Z,87.5
2023-01-21T00:30:10.007Z,87.5
2023-01-21T00:31:16.366Z,88
2023-01-21T00:32:22.486Z,88
2023-01-21T00:33:28.731Z,88
2023-01-21T00:34:34.009Z,88
2023-01-21T00:35:39.307Z,87.5
2023-01-21T00:36:44.621Z,87.5
2023-01-21T00:37:49.885Z,87
2023-01-21T00:38:56.171Z,87
2023-01-21T00:40:02.442Z,87
2023-01-21T00:41:08.716Z,87
2023-01-21T00:42:14.985Z,87
2023-01-21T00:43:21.255Z,87
2023-01-21T00:44:27.599Z,87
2023-01-21T00:45:33.800Z,87
2023-01-21T00:46:40.078Z,87
2023-01-21T00:47:46.354Z,87.5
2023-01-21T00:48:52.626Z,87.5
2023-01-21T00:49:58.897Z,87.5
2023-01-21T00:51:05.204Z,87.5
2023-01-21T00:52:10.460Z,87.5
2023-01-21T00:53:16.788Z,87.5
2023-01-21T00:54:23.029Z,87
2023-01-21T00:55:29.292Z,87
2023-01-21T00:56:35.573Z,87
2023-01-21T00:57:41.825Z,87
2023-01-21T00:58:48.100Z,87
2023-01-21T00:59:53.515Z,87.5
2023-01-21T01:00:58.690Z,87
2023-01-21T01:02:04.981Z,87
2023-01-21T01:03:10.264Z,87
2023-01-21T01:04:15.555Z,87
2023-01-21T01:05:21.843Z,87
2023-01-21T01:06:28.093Z,86.5
2023-01-21T01:07:34.376Z,86.5
2023-01-21T01:08:40.644Z,86.5
2023-01-21T01:09:46.913Z,86.5
2023-01-21T01:10:53.190Z,86.5
2023-01-21T01:11:59.462Z,86.5
2023-01-21T01:13:05.734Z,86.5
2023-01-21T01:14:12.016Z,86.5
2023-01-21T01:15:18.281Z,86.5
2023-01-21T01:16:24.545Z,86
2023-01-21T01:17:30.831Z,86
2023-01-21T01:18:36.129Z,85.5
2023-01-21T01:19:42.394Z,85
2023-01-21T01:20:48.661Z,85.5
2023-01-21T01:21:54.953Z,85.5
2023-01-21T01:23:01.217Z,85.5
2023-01-21T01:24:07.491Z,85.5
2023-01-21T01:25:13.754Z,86
2023-01-21T01:26:19.081Z,85.5
2023-01-21T01:27:24.349Z,85.5
2023-01-21T01:28:29.671Z,85
2023-01-21T01:29:34.950Z,84.5
2023-01-21T01:30:41.212Z,85
2023-01-21T01:31:47.490Z,85.5
2023-01-21T01:32:53.770Z,85
2023-01-21T01:34:00.029Z,85
2023-01-21T01:35:06.314Z,85
2023-01-21T01:36:12.600Z,85.5
2023-01-21T01:37:18.880Z,86
2023-01-21T01:38:25.136Z,86
2023-01-21T01:39:31.407Z,86.5
2023-01-21T01:40:37.679Z,86
2023-01-21T01:41:43.964Z,86
2023-01-21T01:42:50.236Z,86
2023-01-21T01:43:55.512Z,86
2023-01-21T01:45:01.789Z,86
2023-01-21T01:46:08.076Z,86
2023-01-21T01:47:14.330Z,86
2023-01-21T01:48:20.606Z,85.5
2023-01-21T01:49:26.959Z,85.5
2023-01-21T01:50:33.157Z,85.5
2023-01-21T01:51:38.451Z,85.5
2023-01-21T01:52:43.741Z,85.5
2023-01-21T01:53:50.021Z,85.5
2023-01-21T01:54:55.329Z,85
2023-01-21T01:56:00.606Z,85
2023-01-21T01:57:06.878Z,85
2023-01-21T01:58:13.149Z,85
2023-01-21T01:59:19.423Z,84.5
2023-01-21T02:00:25.725Z,84.5
2023-01-21T02:01:31.970Z,84
2023-01-21T02:02:38.250Z,83.5
2023-01-21T02:03:44.525Z,83.5
2023-01-21T02:04:50.794Z,84
2023-01-21T02:05:57.087Z,84.5
2023-01-21T02:07:03.342Z,84.5
2023-01-21T02:08:09.617Z,85
2023-01-21T02:09:15.893Z,85
2023-01-21T02:10:21.236Z,85
2023-01-21T02:11:27.454Z,85
2023-01-21T02:12:33.731Z,85
2023-01-21T02:13:40.018Z,85
2023-01-21T02:14:46.268Z,85
2023-01-21T02:15:52.544Z,85
2023-01-21T02:16:58.820Z,85.5
2023-01-21T02:18:04.118Z,85.5
2023-01-21T02:19:09.408Z,86
2023-01-21T02:20:14.723Z,85
2023-01-21T02:21:20.024Z,84.5
2023-01-21T02:22:26.271Z,84.5
2023-01-21T02:23:32.551Z,84.5
2023-01-21T02:24:38.823Z,85
2023-01-21T02:25:45.092Z,85
2023-01-21T02:26:51.420Z,84.5
2023-01-21T02:27:57.644Z,84.5
2023-01-21T02:29:03.922Z,84.5
2023-01-21T02:30:10.200Z,85
2023-01-21T02:31:16.500Z,85
2023-01-21T02:32:22.798Z,85
2023-01-21T02:33:29.004Z,84.5
2023-01-21T02:34:35.301Z,85
2023-01-21T02:35:40.566Z,85
2023-01-21T02:36:46.844Z,85.5
2023-01-21T02:37:53.170Z,86
2023-01-21T02:38:59.393Z,85.5
2023-01-21T02:40:05.655Z,85.5
2023-01-21T02:41:11.938Z,85.5
2023-01-21T02:42:18.206Z,85.5
2023-01-21T02:43:23.516Z,85.5
2023-01-21T02:44:28.803Z,85.5
2023-01-21T02:45:35.067Z,85.5
2023-01-21T02:46:41.369Z,86
2023-01-21T02:47:46.646Z,86
2023-01-21T02:48:51.938Z,86.5
2023-01-21T02:49:58.205Z,86.5
2023-01-21T02:51:04.520Z,86.5
2023-01-21T02:52:10.754Z,86
2023-01-21T02:53:17.020Z,86
2023-01-21T02:54:23.296Z,85.5
2023-01-21T02:55:29.581Z,85
2023-01-21T02:56:35.847Z,85
2023-01-21T02:57:42.123Z,85
2023-01-21T02:58:48.411Z,85.5
2023-01-21T02:59:54.676Z,85.5
2023-01-21T03:01:00.962Z,85.5
2023-01-21T03:02:07.213Z,86
2023-01-21T03:03:12.506Z,85.5
2023-01-21T03:04:18.786Z,85.5
2023-01-21T03:05:25.057Z,86
2023-01-21T03:06:31.331Z,86
2023-01-21T03:07:37.597Z,86
2023-01-21T03:08:43.874Z,86
2023-01-21T03:09:50.155Z,86.5
2023-01-21T03:10:55.445Z,86.5
2023-01-21T03:12:00.733Z,86.5
2023-01-21T03:13:06.040Z,86.5
2023-01-21T03:14:11.349Z,86.5
2023-01-21T03:15:17.603Z,86.5
2023-01-21T03:16:23.895Z,86
2023-01-21T03:17:30.141Z,86.5
2023-01-21T03:18:36.424Z,86
2023-01-21T03:19:42.700Z,86
2023-01-21T03:20:48.964Z,85.5
2023-01-21T03:21:55.280Z,86
2023-01-21T03:23:01.515Z,86
2023-01-21T03:24:07.783Z,86
2023-01-21T03:25:14.066Z,85.5
2023-01-21T03:26:20.331Z,85.5
2023-01-21T03:27:26.605Z,86
2023-01-21T03:28:31.890Z,86
2023-01-21T03:29:38.172Z,86
2023-01-21T03:30:44.459Z,85.5
2023-01-21T03:31:50.712Z,85.5
2023-01-21T03:32:56.987Z,85.5
2023-01-21T03:34:03.271Z,85.5
2023-01-21T03:35:09.611Z,86
2023-01-21T03:36:14.863Z,86
2023-01-21T03:37:20.135Z,86.5
2023-01-21T03:38:25.434Z,86.5
2023-01-21T03:39:30.722Z,86.5
2023-01-21T03:40:36.994Z,87
2023-01-21T03:41:43.258Z,87
2023-01-21T03:42:49.539Z,86.5
2023-01-21T03:43:55.811Z,86.5
2023-01-21T03:45:02.121Z,86.5
2023-01-21T03:46:08.380Z,86.5
2023-01-21T03:47:14.659Z,86
2023-01-21T03:48:20.903Z,86
2023-01-21T03:49:27.182Z,86
2023-01-21T03:50:33.470Z,86
2023-01-21T03:51:39.723Z,86.5
2023-01-21T03:52:46.015Z,86.5
2023-01-21T03:53:51.292Z,86.5
2023-01-21T03:54:57.564Z,86.5
2023-01-21T03:56:03.858Z,86.5
2023-01-21T03:57:10.126Z,86.5
2023-01-21T03:58:16.387Z,86.5
2023-01-21T03:59:22.653Z,86.5
2023-01-21T04:00:28.929Z,86.5
2023-01-21T04:01:34.237Z,86.5
2023-01-21T04:02:39.514Z,86.5
2023-01-21T04:03:44.824Z,87
2023-01-21T04:04:50.112Z,86.5
2023-01-21T04:05:56.383Z,86.5
2023-01-21T04:07:02.708Z,86.5
2023-01-21T04:08:08.943Z,86.5
2023-01-21T04:09:15.201Z,86.5
2023-01-21T04:10:21.473Z,86.5
2023-01-21T04:11:27.746Z,86.5
2023-01-21T04:12:34.016Z,86.5
2023-01-21T04:13:40.294Z,86.5
2023-01-21T04:14:46.566Z,86
2023-01-21T04:15:52.841Z,86
2023-01-21T04:16:59.115Z,86
2023-01-21T04:18:05.389Z,86.5
2023-01-21T04:19:10.682Z,86.5
2023-01-21T04:20:16.967Z,86.5
2023-01-21T04:21:23.229Z,86.5
2023-01-21T04:22:29.499Z,86.5
2023-01-21T04:23:35.776Z,86.5
2023-01-21T04:24:42.111Z,86.5
2023-01-21T04:25:48.318Z,86.5
2023-01-21T04:26:53.615Z,86.5
2023-01-21T04:27:58.910Z,86.5
2023-01-21T04:29:05.178Z,86.5
2023-01-21T04:30:11.465Z,86.5
2023-01-21T04:31:16.761Z,86.5
2023-01-21T04:32:22.088Z,86.5
2023-01-21T04:33:28.324Z,86.5
2023-01-21T04:34:34.590Z,86.5
2023-01-21T04:35:40.865Z,86.5
2023-01-21T04:36:47.137Z,86
2023-01-21T04:37:53.417Z,86
2023-01-21T04:38:59.687Z,86
2023-01-21T04:40:05.953Z,86
2023-01-21T04:41:12.244Z,86
2023-01-21T04:42:18.498Z,86
2023-01-21T04:43:24.777Z,86
2023-01-21T04:44:31.057Z,86
2023-01-21T04:45:37.334Z,86
2023-01-21T04:46:42.619Z,86
2023-01-21T04:47:48.886Z,86
2023-01-21T04:48:55.172Z,86
2023-01-21T04:50:01.433Z,86
2023-01-21T04:51:07.704Z,86
2023-01-21T04:52:13.980Z,86
2023-01-21T04:53:20.299Z,86
2023-01-21T04:54:25.583Z,86
2023-01-21T04:55:30.840Z,86
2023-01-21T04:56:37.117Z,86
2023-01-21T04:57:43.395Z,86
2023-01-21T04:58:49.669Z,86
2023-01-21T04:59:55.938Z,86
2023-01-21T05:01:02.213Z,86.5
2023-01-21T05:02:08.487Z,86.5
2023-01-21T05:03:14.759Z,86.5
2023-01-21T05:04:21.023Z,86.5
2023-01-21T05:05:27.307Z,86.5
2023-01-21T05:06:33.581Z,86.5
2023-01-21T05:07:39.855Z,86.5
2023-01-21T05:08:45.147Z,86
2023-01-21T05:09:51.417Z,86
2023-01-21T05:10:57.682Z,86.5
2023-01-21T05:12:03.968Z,86.5
2023-01-21T05:13:10.239Z,86.5
2023-01-21T05:14:16.507Z,86
2023-01-21T05:15:22.917Z,86
2023-01-21T05:16:29.056Z,86.5
2023-01-21T05:17:34.358Z,86.5
2023-01-21T05:18:39.646Z,86
2023-01-21T05:19:44.955Z,86
2023-01-21T05:20:50.233Z,86
2023-01-21T05:21:56.531Z,86
2023-01-21T05:23:02.796Z,86
2023-01-21T05:24:09.060Z,86
2023-01-21T05:25:15.354Z,86
2023-01-21T05:26:21.599Z,86
2023-01-21T05:27:27.892Z,86
2023-01-21T05:28:34.152Z,86
2023-01-21T05:29:40.431Z,86
2023-01-21T05:30:46.702Z,86
2023-01-21T05:31:52.983Z,86.5
2023-01-21T05:32:59.244Z,86.5
2023-01-21T05:34:05.526Z,86.5
2023-01-21T05:35:10.803Z,86.5
2023-01-21T05:36:17.091Z,86.5
2023-01-21T05:37:23.387Z,86.5
2023-01-21T05:38:29.621Z,86.5
2023-01-21T05:39:35.903Z,86.5
2023-01-21T05:40:42.179Z,86.5
2023-01-21T05:41:48.446Z,86.5
2023-01-21T05:42:53.746Z,86.5
2023-01-21T05:43:59.042Z,86.5
2023-01-21T05:45:05.314Z,86.5
2023-01-21T05:46:11.587Z,86.5
2023-01-21T05:47:17.855Z,86.5
2023-01-21T05:48:24.122Z,86.5
2023-01-21T05:49:30.403Z,86.5
2023-01-21T05:50:36.680Z,86.5
2023-01-21T05:51:42.946Z,86.5
2023-01-21T05:52:49.226Z,86.5
2023-01-21T05:53:55.508Z,86.5
2023-01-21T05:55:01.788Z,86.5
2023-01-21T05:56:08.054Z,86
2023-01-21T05:57:14.313Z,86
2023-01-21T05:58:19.606Z,86
2023-01-21T05:59:25.923Z,86
2023-01-21T06:00:32.157Z,85.5
2023-01-21T06:01:38.430Z,85.5
2023-01-21T06:02:44.696Z,85.5
2023-01-21T06:03:50.980Z,85.5
2023-01-21T06:04:57.249Z,85.5
2023-01-21T06:06:02.545Z,85.5
2023-01-21T06:07:07.833Z,85.5
2023-01-21T06:08:13.150Z,85.5
2023-01-21T06:09:18.423Z,86
2023-01-21T06:10:23.735Z,86
2023-01-21T06:11:29.033Z,86
2023-01-21T06:12:35.287Z,86
2023-01-21T06:13:41.561Z,86
2023-01-21T06:14:47.834Z,85.5
2023-01-21T06:15:54.110Z,85.5
2023-01-21T06:17:00.378Z,85.5
2023-01-21T06:18:06.667Z,85.5
2023-01-21T06:19:12.938Z,85.5
2023-01-21T06:20:19.212Z,85.5
2023-01-21T06:21:25.471Z,85.5
2023-01-21T06:22:31.755Z,85
2023-01-21T06:23:38.011Z,85
2023-01-21T06:24:44.291Z,85
2023-01-21T06:25:49.588Z,85
2023-01-21T06:26:55.853Z,85
2023-01-21T06:28:02.184Z,85
2023-01-21T06:29:08.409Z,85
2023-01-21T06:30:14.675Z,85
2023-01-21T06:31:20.950Z,85
2023-01-21T06:32:27.238Z,85.5
2023-01-21T06:33:33.577Z,85.5
2023-01-21T06:34:38.790Z,86
2023-01-21T06:35:44.111Z,86
2023-01-21T06:36:50.391Z,86
2023-01-21T06:37:56.645Z,86.5
2023-01-21T06:39:02.924Z,86.5
2023-01-21T06:40:08.196Z,87
2023-01-21T06:41:13.491Z,87
2023-01-21T06:42:19.787Z,87
2023-01-21T06:43:26.068Z,87
2023-01-21T06:44:32.313Z,87
2023-01-21T06:45:38.587Z,87
2023-01-21T06:46:44.861Z,87
2023-01-21T06:47:51.127Z,87.5
2023-01-21T06:48:57.405Z,87
2023-01-21T06:50:03.685Z,87.5
2023-01-21T06:51:09.948Z,87.5
2023-01-21T06:52:16.241Z,87.5
2023-01-21T06:53:22.499Z,88
2023-01-21T06:54:28.776Z,88
2023-01-21T06:55:34.061Z,88
2023-01-21T06:57:46.623Z,88
2023-01-21T06:58:52.880Z,88
2023-01-21T06:59:59.158Z,88
2023-01-21T07:01:05.478Z,88.5
2023-01-21T07:02:11.779Z,88.5
2023-01-21T07:03:17.974Z,88.5
2023-01-21T07:04:23.279Z,88.5
2023-01-21T07:05:28.566Z,88.5
2023-01-21T07:06:34.852Z,88.5
2023-01-21T07:07:41.112Z,88.5
2023-01-21T07:08:47.385Z,88.5
2023-01-21T07:09:53.658Z,88.5
2023-01-21T07:10:58.957Z,88.5
2023-01-21T07:12:04.250Z,88.5
2023-01-21T07:13:10.519Z,88.5
2023-01-21T07:14:16.787Z,88.5
2023-01-21T07:15:23.074Z,89
2023-01-21T07:16:29.396Z,89
2023-01-21T07:17:35.615Z,89
2023-01-21T07:18:41.889Z,89
2023-01-21T07:19:48.181Z,89
2023-01-21T07:20:54.430Z,89
2023-01-21T07:22:00.763Z,89
2023-01-21T07:23:07.029Z,89
2023-01-21T07:24:13.256Z,89
2023-01-21T07:25:19.540Z,89
2023-01-21T07:26:24.831Z,89
2023-01-21T07:27:31.091Z,89.5
2023-01-21T07:28:37.367Z,89.5
2023-01-21T07:29:43.639Z,89.5
2023-01-21T07:30:49.908Z,89
2023-01-21T07:31:56.188Z,89
2023-01-21T07:33:02.462Z,89
2023-01-21T07:34:08.732Z,89.5
2023-01-21T07:35:15.008Z,89.5
2023-01-21T07:36:21.286Z,89.5
2023-01-21T07:37:27.547Z,90
2023-01-21T07:38:33.827Z,90
2023-01-21T07:39:40.109Z,90.5
2023-01-21T07:40:45.402Z,90.5
2023-01-21T07:41:51.667Z,90.5
2023-01-21T07:42:57.937Z,90.5
2023-01-21T07:44:04.216Z,90.5
2023-01-21T07:45:10.612Z,90.5
2023-01-21T07:46:16.755Z,90
2023-01-21T07:47:23.026Z,90
2023-01-21T07:48:29.322Z,90
2023-01-21T07:49:35.570Z,90
2023-01-21T07:50:41.847Z,90
2023-01-21T07:51:48.126Z,90
2023-01-21T07:52:54.397Z,90
2023-01-21T07:54:00.664Z,90
2023-01-21T07:55:06.014Z,90
2023-01-21T07:56:12.229Z,90.5
2023-01-21T07:57:18.509Z,90.5
2023-01-21T07:58:24.832Z,90
2023-01-21T07:59:31.050Z,90
2023-01-21T08:00:37.324Z,90
2023-01-21T08:01:43.595Z,90
2023-01-21T08:02:49.891Z,90
2023-01-21T08:03:56.139Z,90.5
2023-01-21T08:05:02.409Z,90.5
2023-01-21T08:06:08.722Z,90.5
2023-01-21T08:07:14.959Z,90.5
2023-01-21T08:08:21.227Z,90.5
2023-01-21T08:09:26.516Z,90.5
2023-01-21T08:10:32.792Z,90.5
2023-01-21T08:11:39.071Z,90.5
2023-01-21T08:12:45.338Z,90.5
2023-01-21T08:13:51.607Z,90.5
2023-01-21T08:14:57.914Z,90.5
2023-01-21T08:16:04.154Z,90.5
2023-01-21T08:17:10.457Z,90.5
2023-01-21T08:18:16.715Z,90.5
2023-01-21T08:19:22.031Z,90.5
2023-01-21T08:20:27.295Z,90.5
2023-01-21T08:21:32.637Z,90.5
2023-01-21T08:22:37.890Z,90.5
2023-01-21T08:23:44.144Z,90.5
2023-01-21T08:24:50.429Z,90.5
2023-01-21T08:25:56.723Z,90.5
2023-01-21T08:27:03.018Z,90
2023-01-21T08:28:09.245Z,90
2023-01-21T08:29:15.525Z,90
2023-01-21T08:30:21.785Z,90
2023-01-21T08:31:28.076Z,89.5
2023-01-21T08:32:34.332Z,89.5
2023-01-21T08:33:40.631Z,90
2023-01-21T08:34:46.877Z,90
2023-01-21T08:35:53.148Z,90
2023-01-21T08:36:58.439Z,90
2023-01-21T08:38:04.719Z,90
2023-01-21T08:39:11.028Z,90
2023-01-21T08:40:17.265Z,90
2023-01-21T08:41:23.560Z,90
2023-01-21T08:42:29.836Z,90
2023-01-21T08:43:36.111Z,89.5
2023-01-21T08:44:41.378Z,89.5
2023-01-21T08:45:46.666Z,89.5
2023-01-21T08:46:52.973Z,89.5
2023-01-21T08:47:59.226Z,89.5
2023-01-21T08:49:05.486Z,89.5
2023-01-21T08:50:10.810Z,89.5
2023-01-21T08:51:16.123Z,89.5
2023-01-21T08:52:22.357Z,89
2023-01-21T08:53:28.659Z,89
2023-01-21T08:54:34.928Z,89
2023-01-21T08:55:41.182Z,89
2023-01-21T08:56:47.474Z,88.5
2023-01-21T08:57:53.724Z,88.5
2023-01-21T08:58:59.999Z,88
2023-01-21T09:00:06.270Z,88
2023-01-21T09:01:12.544Z,88
2023-01-21T09:02:18.841Z,88
2023-01-21T09:03:25.155Z,88
2023-01-21T09:04:31.358Z,88
2023-01-21T09:05:36.644Z,88
2023-01-21T09:06:42.924Z,87.5
2023-01-21T09:07:49.195Z,87.5
2023-01-21T09:08:55.472Z,87.5
2023-01-21T09:10:01.745Z,87.5
2023-01-21T09:11:08.051Z,87.5
2023-01-21T09:12:14.333Z,87.5
2023-01-21T09:13:20.560Z,87.5
2023-01-21T09:14:26.853Z,87
2023-01-21T09:15:33.118Z,86.5
2023-01-21T09:16:39.393Z,86.5
2023-01-21T09:17:45.653Z,86.5
2023-01-21T09:18:51.926Z,87
2023-01-21T09:19:57.214Z,86.5
2023-01-21T09:21:03.492Z,86.5
2023-01-21T09:22:09.796Z,87
2023-01-21T09:23:16.039Z,87
2023-01-21T09:24:22.343Z,87
2023-01-21T09:25:28.579Z,87
2023-01-21T09:26:34.846Z,87
2023-01-21T09:27:41.144Z,87
2023-01-21T09:28:47.391Z,87
2023-01-21T09:29:53.674Z,86.5
2023-01-21T09:30:59.953Z,86
2023-01-21T09:32:06.215Z,86
2023-01-21T09:33:12.492Z,86
2023-01-21T09:34:17.810Z,86
2023-01-21T09:35:24.051Z,86
2023-01-21T09:36:30.333Z,86
2023-01-21T09:37:36.617Z,86
2023-01-21T09:38:42.867Z,86
2023-01-21T09:39:49.150Z,86
2023-01-21T09:40:55.411Z,86
2023-01-21T09:42:00.712Z,86
2023-01-21T09:43:06.003Z,86
2023-01-21T09:44:11.307Z,85.5
2023-01-21T09:45:16.586Z,85.5
2023-01-21T09:46:22.875Z,85.5
2023-01-21T09:47:29.200Z,85.5
2023-01-21T09:48:35.416Z,85
2023-01-21T09:49:41.681Z,85
2023-01-21T09:50:47.964Z,85
2023-01-21T09:51:54.227Z,85
2023-01-21T09:53:00.580Z,85
2023-01-21T09:54:06.790Z,85
2023-01-21T09:55:13.049Z,85
2023-01-21T09:56:19.387Z,84.5
2023-01-21T09:57:25.593Z,84.5
2023-01-21T09:58:31.865Z,84
2023-01-21T09:59:37.154Z,84
2023-01-21T10:00:43.434Z,84.5
2023-01-21T10:01:49.702Z,84.5
2023-01-21T10:02:55.972Z,84.5
2023-01-21T10:04:02.250Z,84.5
2023-01-21T10:05:08.522Z,84.5
2023-01-21T10:06:14.810Z,85
2023-01-21T10:07:20.095Z,85
2023-01-21T10:08:25.386Z,85
2023-01-21T10:09:30.688Z,85
2023-01-21T10:10:35.967Z,85
2023-01-21T10:11:42.242Z,85
2023-01-21T10:12:48.514Z,84.5
2023-01-21T10:13:54.788Z,84.5
2023-01-21T10:15:01.068Z,84.5
2023-01-21T10:16:07.339Z,84
2023-01-21T10:17:13.608Z,84.5
2023-01-21T10:18:19.883Z,84.5
2023-01-21T10:19:26.160Z,84
2023-01-21T10:20:32.428Z,84
2023-01-21T10:21:38.720Z,84
2023-01-21T10:22:44.980Z,84
2023-01-21T10:23:51.307Z,83.5
2023-01-21T10:24:57.567Z,83.5
2023-01-21T10:26:02.860Z,83.5
2023-01-21T10:27:09.091Z,83.5
2023-01-21T10:28:15.353Z,83
2023-01-21T10:29:21.629Z,83
2023-01-21T10:30:27.904Z,83
2023-01-21T10:31:34.175Z,83
2023-01-21T10:32:39.468Z,83
2023-01-21T10:33:44.763Z,83
2023-01-21T10:34:50.110Z,82.5
2023-01-21T10:35:55.361Z,82.5
2023-01-21T10:37:01.621Z,82.5
2023-01-21T10:38:07.909Z,82.5
2023-01-21T10:39:14.170Z,82.5
2023-01-21T10:40:20.471Z,82.5
2023-01-21T10:41:26.715Z,82.5
2023-01-21T10:42:32.990Z,82.5
2023-01-21T10:43:39.285Z,82.5
2023-01-21T10:44:45.543Z,82
2023-01-21T10:45:51.805Z,82
2023-01-21T10:46:58.081Z,81.5
2023-01-21T10:48:04.351Z,81.5
2023-01-21T10:49:10.625Z,81.5
2023-01-21T10:50:15.943Z,81.5
2023-01-21T10:51:22.223Z,81.5
2023-01-21T10:52:28.460Z,81
2023-01-21T10:53:34.734Z,81
2023-01-21T10:54:41.032Z,81
2023-01-21T10:55:47.287Z,81
2023-01-21T10:56:53.566Z,81
2023-01-21T10:57:58.861Z,81
2023-01-21T10:59:04.158Z,81
2023-01-21T11:00:10.409Z,80.5
2023-01-21T11:01:16.678Z,81
2023-01-21T11:02:22.952Z,80.5
2023-01-21T11:03:28.248Z,80
2023-01-21T11:04:33.549Z,80
2023-01-21T11:05:39.841Z,80.5
2023-01-21T11:06:46.092Z,80.5
2023-01-21T11:07:52.370Z,80.5
2023-01-21T11:08:58.711Z,80.5
2023-01-21T11:10:04.910Z,80.5
2023-01-21T11:11:11.179Z,80.5
2023-01-21T11:12:17.466Z,80
2023-01-21T11:13:23.736Z,80.5
2023-01-21T11:14:30.053Z,80.5
2023-01-21T11:15:36.269Z,80.5
2023-01-21T11:16:42.548Z,80.5
2023-01-21T11:17:48.845Z,81
2023-01-21T11:18:54.114Z,81
2023-01-21T11:20:00.398Z,81
2023-01-21T11:21:06.696Z,81.5
2023-01-21T11:22:12.933Z,82.5
2023-01-21T11:23:19.202Z,82.5
2023-01-21T11:24:25.469Z,83
2023-01-21T11:25:31.747Z,83
2023-01-21T11:26:37.054Z,83.5
2023-01-21T11:27:42.330Z,83.5
2023-01-21T11:28:47.620Z,84
2023-01-21T11:29:52.917Z,84
2023-01-21T11:30:59.213Z,84
2023-01-21T11:32:05.466Z,84
2023-01-21T11:33:11.762Z,84.5
2023-01-21T11:34:18.008Z,84.5
2023-01-21T11:35:24.299Z,84.5
2023-01-21T11:36:30.557Z,84.5
2023-01-21T11:37:36.829Z,84.5
2023-01-21T11:38:43.107Z,84.5
2023-01-21T11:39:49.420Z,84.5
2023-01-21T11:40:55.652Z,85
2023-01-21T11:42:01.918Z,85
2023-01-21T11:43:08.193Z,85
2023-01-21T11:44:13.482Z,85.5
2023-01-21T11:45:19.751Z,85
2023-01-21T11:46:26.055Z,85
2023-01-21T11:47:32.301Z,85
2023-01-21T11:48:38.570Z,85.5
2023-01-21T11:49:44.847Z,84.5
2023-01-21T11:50:51.117Z,85
2023-01-21T11:51:56.453Z,85
2023-01-21T11:53:01.705Z,85
2023-01-21T11:54:07.002Z,85.5
2023-01-21T11:55:12.293Z,85.5
2023-01-21T11:56:18.607Z,85.5
2023-01-21T11:57:24.851Z,85.5
2023-01-21T11:58:31.118Z,86
2023-01-21T11:59:37.385Z,86
2023-01-21T12:00:43.664Z,86.5
2023-01-21T12:01:49.930Z,86.5
2023-01-21T12:02:56.200Z,86.5
2023-01-21T12:04:02.472Z,86.5
2023-01-21T12:05:08.741Z,86.5
2023-01-21T12:06:15.030Z,87
2023-01-21T12:07:21.298Z,87
2023-01-21T12:08:27.572Z,87
2023-01-21T12:09:32.849Z,87.5
2023-01-21T12:10:39.129Z,87.5
2023-01-21T12:11:45.397Z,87.5
2023-01-21T12:12:51.672Z,87.5
2023-01-21T12:13:57.944Z,87.5
2023-01-21T12:15:04.221Z,87.5
2023-01-21T12:16:10.498Z,87
2023-01-21T12:17:15.788Z,86.5
2023-01-21T12:18:21.096Z,86.5
2023-01-21T12:19:26.385Z,86.5
2023-01-21T12:20:31.677Z,86.5
2023-01-21T12:21:37.939Z,86.5
2023-01-21T12:22:44.214Z,87
2023-01-21T12:23:50.559Z,87
2023-01-21T12:24:56.802Z,87
2023-01-21T12:26:03.042Z,86.5
2023-01-21T12:27:09.310Z,87
2023-01-21T12:28:15.591Z,87
2023-01-21T12:29:21.863Z,87
2023-01-21T12:30:28.135Z,87
2023-01-21T12:31:33.413Z,86.5
2023-01-21T12:32:39.707Z,86.5
2023-01-21T12:33:45.987Z,86.5
2023-01-21T12:34:52.235Z,86.5
2023-01-21T12:35:58.515Z,87
2023-01-21T12:37:04.805Z,86.5
2023-01-21T12:38:11.059Z,86
2023-01-21T12:39:17.331Z,86
2023-01-21T12:40:23.628Z,86.5
2023-01-21T12:41:29.874Z,86.5
2023-01-21T12:42:35.209Z,86.5
2023-01-21T12:43:40.530Z,87
2023-01-21T12:44:45.784Z,87
2023-01-21T12:45:51.086Z,87
2023-01-21T12:46:57.338Z,87
2023-01-21T12:48:03.658Z,87
2023-01-21T12:49:09.869Z,87
2023-01-21T12:50:16.142Z,87.5
2023-01-21T12:51:22.413Z,87.5
2023-01-21T12:52:28.758Z,87.5
2023-01-21T12:53:34.963Z,87.5
2023-01-21T12:54:41.264Z,87.5
2023-01-21T12:55:47.528Z,87.5
2023-01-21T12:56:53.774Z,87.5
2023-01-21T12:58:00.097Z,87.5
2023-01-21T12:59:06.324Z,87.5
2023-01-21T13:00:11.678Z,87.5
2023-01-21T13:01:17.890Z,87.5
2023-01-21T13:02:24.180Z,88
2023-01-21T13:03:30.448Z,88
2023-01-21T13:04:36.702Z,87.5
2023-01-21T13:05:42.993Z,87.5
2023-01-21T13:06:49.265Z,88
2023-01-21T13:07:54.559Z,88
2023-01-21T13:08:59.922Z,88
2023-01-21T13:10:06.107Z,88
2023-01-21T13:11:12.389Z,88
2023-01-21T13:12:18.667Z,88
2023-01-21T13:13:24.936Z,88
2023-01-21T13:14:31.206Z,87.5
2023-01-21T13:15:37.475Z,87.5
2023-01-21T13:16:43.755Z,88
2023-01-21T13:17:50.022Z,88
2023-01-21T13:18:56.292Z,88
2023-01-21T13:20:02.566Z,87.5
2023-01-21T13:21:08.845Z,87.5
2023-01-21T13:22:15.133Z,87.5
2023-01-21T13:23:20.497Z,87.5
2023-01-21T13:24:26.672Z,87.5
2023-01-21T13:25:32.969Z,87.5
2023-01-21T13:26:39.218Z,87.5
2023-01-21T13:27:45.489Z,87.5
2023-01-21T13:28:51.773Z,87.5
2023-01-21T13:29:58.039Z,87.5
2023-01-21T13:31:04.320Z,87.5
2023-01-21T13:32:09.621Z,88
2023-01-21T13:33:14.904Z,88.5
2023-01-21T13:34:20.195Z,88.5
2023-01-21T13:35:25.490Z,88.5
2023-01-21T13:36:31.768Z,88.5
2023-01-21T13:37:38.029Z,88.5
2023-01-21T13:38:44.318Z,88.5
2023-01-21T13:39:50.578Z,88.5
2023-01-21T13:40:56.869Z,88.5
2023-01-21T13:42:03.130Z,88.5
2023-01-21T13:43:09.401Z,88.5
2023-01-21T13:44:15.673Z,89
2023-01-21T13:45:21.963Z,88.5
2023-01-21T13:46:28.255Z,88.5
2023-01-21T13:47:34.492Z,88.5
2023-01-21T13:48:40.760Z,88.5
2023-01-21T13:49:46.052Z,88.5
2023-01-21T13:50:52.326Z,89
2023-01-21T13:51:58.595Z,88.5
2023-01-21T13:53:04.866Z,88.5
2023-01-21T13:54:11.136Z,89
2023-01-21T13:55:17.419Z,89
2023-01-21T13:56:23.690Z,89.5
2023-01-21T13:57:28.999Z,89
2023-01-21T13:58:34.270Z,89
2023-01-21T13:59:39.601Z,89
2023-01-21T14:00:44.862Z,89.5
2023-01-21T14:01:50.173Z,89.5
2023-01-21T14:02:56.462Z,89
2023-01-21T14:04:01.930Z,89
2023-01-21T14:05:07.999Z,89
2023-01-21T14:06:14.280Z,89
2023-01-21T14:07:20.541Z,89
2023-01-21T14:08:26.822Z,89
2023-01-21T14:09:33.117Z,89.5
2023-01-21T14:10:39.381Z,89.5
2023-01-21T14:11:45.640Z,89.5
2023-01-21T14:12:51.910Z,89.5
2023-01-21T14:13:58.175Z,89.5
2023-01-21T14:15:04.449Z,89
2023-01-21T14:16:10.722Z,89
2023-01-21T14:17:16.998Z,89
2023-01-21T14:18:22.283Z,89
2023-01-21T14:19:28.621Z,89
2023-01-21T14:20:34.854Z,89
2023-01-21T14:21:41.102Z,89
2023-01-21T14:22:47.381Z,89
2023-01-21T14:23:53.642Z,88.5
2023-01-21T14:24:58.951Z,88.5
2023-01-21T14:26:04.291Z,88.5
2023-01-21T14:27:09.562Z,88.5
2023-01-21T14:28:15.829Z,88.5
2023-01-21T14:29:21.122Z,88.5
2023-01-21T14:30:27.449Z,89
2023-01-21T14:31:33.644Z,89
2023-01-21T14:32:39.923Z,89
2023-01-21T14:33:46.223Z,89
2023-01-21T14:34:52.458Z,89
2023-01-21T14:35:58.733Z,89
2023-01-21T14:37:05.012Z,89
2023-01-21T14:38:11.283Z,89
2023-01-21T14:39:17.573Z,89
2023-01-21T14:40:23.829Z,89
2023-01-21T14:41:30.111Z,89
2023-01-21T14:42:36.378Z,89.5
2023-01-21T14:43:41.660Z,89.5
2023-01-21T14:44:47.960Z,89.5
2023-01-21T14:45:54.238Z,89.5
2023-01-21T14:47:00.477Z,89.5
2023-01-21T14:48:06.749Z,90
2023-01-21T14:49:13.062Z,90
2023-01-21T14:50:18.321Z,90
2023-01-21T14:51:23.615Z,90
2023-01-21T14:52:29.895Z,90
2023-01-21T14:53:35.183Z,90.5
2023-01-21T14:54:40.473Z,90.5
2023-01-21T14:55:46.763Z,90
2023-01-21T14:56:53.013Z,90
2023-01-21T14:57:59.296Z,90
2023-01-21T14:59:05.568Z,90
2023-01-21T15:00:11.971Z,90
2023-01-21T15:01:18.236Z,90
2023-01-21T15:02:24.566Z,90
2023-01-21T15:03:30.741Z,89.5
2023-01-21T15:04:36.957Z,90
2023-01-21T15:05:43.273Z,90
2023-01-21T15:06:49.474Z,90
2023-01-21T15:07:55.746Z,90.5
2023-01-21T15:09:01.096Z,90
2023-01-21T15:10:07.313Z,90